sensor_id;sensor_type;location;lat;lon;timestamp;P1;durP1;ratioP1;P2;durP2;ratioP2
16270;SDS011;8243;49.048;8.396;2023-02-25T00:00:26;6.27;;;3.67;;
16270;SDS011;8243;49.048;8.396;2023-02-25T00:02:54;4.00;;;3.17;;
16270;SDS011;8243;49.048;8.396;2023-02-25T00:05:21;5.00;;;3.70;;
16270;SDS011;8243;49.048;8.396;2023-02-25T00:07:46;5.77;;;3.30;;
16270;SDS011;8243;49.048;8.396;2023-02-25T00:10:12;5.00;;;3.33;;
16270;SDS011;8243;49.048;8.396;2023-02-25T00:12:39;8.30;;;3.77;;
16270;SDS011;8243;49.048;8.396;2023-02-25T00:15:05;4.33;;;3.60;;
16270;SDS011;8243;49.048;8.396;2023-02-25T00:17:32;4.63;;;3.47;;
16270;SDS011;8243;49.048;8.396;2023-02-25T00:19:57;5.73;;;3.53;;
16270;SDS011;8243;49.048;8.396;2023-02-25T00:22:24;6.00;;;3.67;;
16270;SDS011;8243;49.048;8.396;2023-02-25T00:24:51;5.80;;;3.70;;
16270;SDS011;8243;49.048;8.396;2023-02-25T00:27:18;4.83;;;3.80;;
16270;SDS011;8243;49.048;8.396;2023-02-25T00:29:43;7.50;;;3.90;;
16270;SDS011;8243;49.048;8.396;2023-02-25T00:32:09;4.63;;;3.37;;
16270;SDS011;8243;49.048;8.396;2023-02-25T00:34:35;5.20;;;3.53;;
16270;SDS011;8243;49.048;8.396;2023-02-25T00:37:00;7.17;;;3.70;;
16270;SDS011;8243;49.048;8.396;2023-02-25T00:39:26;8.43;;;3.63;;
16270;SDS011;8243;49.048;8.396;2023-02-25T00:42:06;5.90;;;3.63;;
16270;SDS011;8243;49.048;8.396;2023-02-25T00:44:33;7.10;;;3.80;;
16270;SDS011;8243;49.048;8.396;2023-02-25T00:46:59;5.10;;;3.77;;
16270;SDS011;8243;49.048;8.396;2023-02-25T00:49:24;5.60;;;3.90;;
16270;SDS011;8243;49.048;8.396;2023-02-25T00:51:51;5.90;;;3.83;;
16270;SDS011;8243;49.048;8.396;2023-02-25T00:54:16;5.67;;;3.40;;
16270;SDS011;8243;49.048;8.396;2023-02-25T00:56:42;6.90;;;4.17;;
16270;SDS011;8243;49.048;8.396;2023-02-25T00:59:08;4.07;;;3.13;;
16270;SDS011;8243;49.048;8.396;2023-02-25T01:01:33;4.87;;;3.03;;
16270;SDS011;8243;49.048;8.396;2023-02-25T01:04:01;6.40;;;3.87;;
16270;SDS011;8243;49.048;8.396;2023-02-25T01:06:27;5.00;;;3.47;;
16270;SDS011;8243;49.048;8.396;2023-02-25T01:08:54;9.40;;;3.57;;
16270;SDS011;8243;49.048;8.396;2023-02-25T01:11:22;5.77;;;3.40;;
16270;SDS011;8243;49.048;8.396;2023-02-25T01:13:53;4.90;;;3.60;;
16270;SDS011;8243;49.048;8.396;2023-02-25T01:16:22;5.87;;;3.47;;
16270;SDS011;8243;49.048;8.396;2023-02-25T01:18:52;4.43;;;3.50;;
16270;SDS011;8243;49.048;8.396;2023-02-25T01:21:20;9.50;;;3.67;;
16270;SDS011;8243;49.048;8.396;2023-02-25T01:23:56;5.60;;;3.30;;
16270;SDS011;8243;49.048;8.396;2023-02-25T01:26:24;5.53;;;3.37;;
16270;SDS011;8243;49.048;8.396;2023-02-25T01:28:51;6.23;;;3.43;;
16270;SDS011;8243;49.048;8.396;2023-02-25T01:31:17;4.00;;;3.30;;
16270;SDS011;8243;49.048;8.396;2023-02-25T01:33:49;5.37;;;3.13;;
16270;SDS011;8243;49.048;8.396;2023-02-25T01:36:15;5.10;;;3.37;;
16270;SDS011;8243;49.048;8.396;2023-02-25T01:38:41;7.93;;;3.80;;
16270;SDS011;8243;49.048;8.396;2023-02-25T01:41:06;5.57;;;3.40;;
16270;SDS011;8243;49.048;8.396;2023-02-25T01:43:32;5.20;;;3.07;;
16270;SDS011;8243;49.048;8.396;2023-02-25T01:45:58;4.80;;;3.13;;
16270;SDS011;8243;49.048;8.396;2023-02-25T01:48:25;6.07;;;3.17;;
16270;SDS011;8243;49.048;8.396;2023-02-25T01:50:55;3.87;;;3.13;;
16270;SDS011;8243;49.048;8.396;2023-02-25T01:53:27;4.80;;;3.10;;
16270;SDS011;8243;49.048;8.396;2023-02-25T01:56:05;3.83;;;3.23;;
16270;SDS011;8243;49.048;8.396;2023-02-25T01:58:31;3.77;;;2.93;;
16270;SDS011;8243;49.048;8.396;2023-02-25T02:00:58;3.97;;;2.73;;
16270;SDS011;8243;49.048;8.396;2023-02-25T02:03:25;4.47;;;2.70;;
16270;SDS011;8243;49.048;8.396;2023-02-25T02:08:40;7.70;;;2.73;;
16270;SDS011;8243;49.048;8.396;2023-02-25T02:11:07;3.33;;;2.50;;
16270;SDS011;8243;49.048;8.396;2023-02-25T02:13:34;3.47;;;2.20;;
16270;SDS011;8243;49.048;8.396;2023-02-25T02:19:02;4.30;;;2.10;;
16270;SDS011;8243;49.048;8.396;2023-02-25T02:21:44;5.77;;;2.77;;
16270;SDS011;8243;49.048;8.396;2023-02-25T02:33:22;3.20;;;2.80;;
16270;SDS011;8243;49.048;8.396;2023-02-25T02:36:08;4.33;;;2.83;;
16270;SDS011;8243;49.048;8.396;2023-02-25T02:39:01;3.57;;;2.63;;
16270;SDS011;8243;49.048;8.396;2023-02-25T02:41:53;3.87;;;2.80;;
16270;SDS011;8243;49.048;8.396;2023-02-25T02:44:32;4.40;;;2.77;;
16270;SDS011;8243;49.048;8.396;2023-02-25T02:50:07;2.60;;;1.93;;
16270;SDS011;8243;49.048;8.396;2023-02-25T02:52:43;3.30;;;1.90;;
16270;SDS011;8243;49.048;8.396;2023-02-25T02:55:18;2.43;;;1.77;;
16270;SDS011;8243;49.048;8.396;2023-02-25T02:57:52;3.30;;;1.70;;
16270;SDS011;8243;49.048;8.396;2023-02-25T03:00:22;4.33;;;1.90;;
16270;SDS011;8243;49.048;8.396;2023-02-25T03:02:56;3.87;;;1.67;;
16270;SDS011;8243;49.048;8.396;2023-02-25T03:05:26;3.43;;;1.67;;
16270;SDS011;8243;49.048;8.396;2023-02-25T03:07:59;4.47;;;1.60;;
16270;SDS011;8243;49.048;8.396;2023-02-25T03:10:31;4.67;;;1.80;;
16270;SDS011;8243;49.048;8.396;2023-02-25T03:12:57;6.07;;;1.80;;
16270;SDS011;8243;49.048;8.396;2023-02-25T03:15:23;4.07;;;1.97;;
16270;SDS011;8243;49.048;8.396;2023-02-25T03:17:52;5.03;;;2.20;;
16270;SDS011;8243;49.048;8.396;2023-02-25T03:20:28;4.30;;;1.97;;
16270;SDS011;8243;49.048;8.396;2023-02-25T03:23:00;2.70;;;1.57;;
16270;SDS011;8243;49.048;8.396;2023-02-25T03:25:31;3.87;;;1.53;;
16270;SDS011;8243;49.048;8.396;2023-02-25T03:28:03;2.97;;;1.50;;
16270;SDS011;8243;49.048;8.396;2023-02-25T03:30:38;3.60;;;2.00;;
16270;SDS011;8243;49.048;8.396;2023-02-25T03:35:49;5.23;;;1.50;;
16270;SDS011;8243;49.048;8.396;2023-02-25T03:38:18;4.40;;;1.73;;
16270;SDS011;8243;49.048;8.396;2023-02-25T03:40:46;3.07;;;1.47;;
16270;SDS011;8243;49.048;8.396;2023-02-25T03:43:20;4.37;;;1.70;;
16270;SDS011;8243;49.048;8.396;2023-02-25T03:45:49;5.30;;;1.90;;
16270;SDS011;8243;49.048;8.396;2023-02-25T03:48:15;4.57;;;1.50;;
16270;SDS011;8243;49.048;8.396;2023-02-25T03:50:44;5.33;;;2.00;;
16270;SDS011;8243;49.048;8.396;2023-02-25T03:53:12;3.97;;;1.50;;
16270;SDS011;8243;49.048;8.396;2023-02-25T03:55:38;3.90;;;1.40;;
16270;SDS011;8243;49.048;8.396;2023-02-25T03:58:05;4.67;;;1.43;;
16270;SDS011;8243;49.048;8.396;2023-02-25T04:00:32;4.80;;;1.97;;
16270;SDS011;8243;49.048;8.396;2023-02-25T04:02:58;2.60;;;1.70;;
16270;SDS011;8243;49.048;8.396;2023-02-25T04:05:24;4.93;;;1.67;;
16270;SDS011;8243;49.048;8.396;2023-02-25T04:07:51;4.40;;;2.17;;
16270;SDS011;8243;49.048;8.396;2023-02-25T04:10:21;3.47;;;1.80;;
16270;SDS011;8243;49.048;8.396;2023-02-25T04:12:47;4.07;;;1.57;;
16270;SDS011;8243;49.048;8.396;2023-02-25T04:15:15;4.50;;;1.70;;
16270;SDS011;8243;49.048;8.396;2023-02-25T04:17:41;3.23;;;1.60;;
16270;SDS011;8243;49.048;8.396;2023-02-25T04:20:06;3.53;;;1.47;;
16270;SDS011;8243;49.048;8.396;2023-02-25T04:22:33;1.83;;;1.10;;
16270;SDS011;8243;49.048;8.396;2023-02-25T04:24:58;3.03;;;1.27;;
16270;SDS011;8243;49.048;8.396;2023-02-25T04:27:25;4.20;;;1.40;;
16270;SDS011;8243;49.048;8.396;2023-02-25T04:29:51;4.23;;;1.30;;
16270;SDS011;8243;49.048;8.396;2023-02-25T04:32:17;5.50;;;1.60;;
16270;SDS011;8243;49.048;8.396;2023-02-25T04:34:42;2.17;;;1.23;;
16270;SDS011;8243;49.048;8.396;2023-02-25T04:37:08;2.17;;;1.20;;
16270;SDS011;8243;49.048;8.396;2023-02-25T04:39:34;2.10;;;1.27;;
16270;SDS011;8243;49.048;8.396;2023-02-25T04:42:00;4.23;;;1.73;;
16270;SDS011;8243;49.048;8.396;2023-02-25T04:44:25;2.67;;;1.43;;
16270;SDS011;8243;49.048;8.396;2023-02-25T04:46:51;4.13;;;1.73;;
16270;SDS011;8243;49.048;8.396;2023-02-25T04:49:18;3.10;;;1.57;;
16270;SDS011;8243;49.048;8.396;2023-02-25T04:51:45;3.90;;;1.30;;
16270;SDS011;8243;49.048;8.396;2023-02-25T04:54:11;2.63;;;1.10;;
16270;SDS011;8243;49.048;8.396;2023-02-25T04:56:37;1.47;;;1.23;;
16270;SDS011;8243;49.048;8.396;2023-02-25T04:59:04;4.07;;;1.40;;
16270;SDS011;8243;49.048;8.396;2023-02-25T05:01:29;4.20;;;1.60;;
16270;SDS011;8243;49.048;8.396;2023-02-25T05:03:58;4.23;;;1.30;;
16270;SDS011;8243;49.048;8.396;2023-02-25T05:06:25;3.07;;;1.23;;
16270;SDS011;8243;49.048;8.396;2023-02-25T05:08:51;4.50;;;1.40;;
16270;SDS011;8243;49.048;8.396;2023-02-25T05:11:18;2.23;;;1.30;;
16270;SDS011;8243;49.048;8.396;2023-02-25T05:13:45;3.00;;;1.00;;
16270;SDS011;8243;49.048;8.396;2023-02-25T05:16:12;3.03;;;1.13;;
16270;SDS011;8243;49.048;8.396;2023-02-25T05:18:42;3.00;;;1.10;;
16270;SDS011;8243;49.048;8.396;2023-02-25T05:21:10;3.47;;;1.27;;
16270;SDS011;8243;49.048;8.396;2023-02-25T05:23:38;2.27;;;1.27;;
16270;SDS011;8243;49.048;8.396;2023-02-25T05:26:05;2.33;;;1.23;;
16270;SDS011;8243;49.048;8.396;2023-02-25T05:28:31;3.40;;;1.20;;
16270;SDS011;8243;49.048;8.396;2023-02-25T05:30:56;4.53;;;1.97;;
16270;SDS011;8243;49.048;8.396;2023-02-25T05:33:22;1.97;;;1.03;;
16270;SDS011;8243;49.048;8.396;2023-02-25T05:35:48;2.60;;;1.10;;
16270;SDS011;8243;49.048;8.396;2023-02-25T05:38:14;3.23;;;1.37;;
16270;SDS011;8243;49.048;8.396;2023-02-25T05:40:40;1.37;;;1.13;;
16270;SDS011;8243;49.048;8.396;2023-02-25T05:43:05;2.43;;;1.20;;
16270;SDS011;8243;49.048;8.396;2023-02-25T05:45:31;3.40;;;1.20;;
16270;SDS011;8243;49.048;8.396;2023-02-25T05:47:57;2.23;;;1.27;;
16270;SDS011;8243;49.048;8.396;2023-02-25T05:50:22;2.90;;;1.90;;
16270;SDS011;8243;49.048;8.396;2023-02-25T05:52:48;2.40;;;1.27;;
16270;SDS011;8243;49.048;8.396;2023-02-25T05:55:13;6.03;;;1.40;;
16270;SDS011;8243;49.048;8.396;2023-02-25T05:57:42;3.77;;;1.40;;
16270;SDS011;8243;49.048;8.396;2023-02-25T06:00:08;2.97;;;1.23;;
16270;SDS011;8243;49.048;8.396;2023-02-25T06:02:38;5.07;;;1.30;;
16270;SDS011;8243;49.048;8.396;2023-02-25T06:05:08;4.00;;;1.77;;
16270;SDS011;8243;49.048;8.396;2023-02-25T06:07:34;4.37;;;2.20;;
16270;SDS011;8243;49.048;8.396;2023-02-25T06:10:00;4.23;;;1.30;;
16270;SDS011;8243;49.048;8.396;2023-02-25T06:12:29;6.83;;;2.03;;
16270;SDS011;8243;49.048;8.396;2023-02-25T06:14:56;4.23;;;2.10;;
16270;SDS011;8243;49.048;8.396;2023-02-25T06:17:22;4.70;;;2.10;;
16270;SDS011;8243;49.048;8.396;2023-02-25T06:19:51;3.13;;;1.60;;
16270;SDS011;8243;49.048;8.396;2023-02-25T06:22:20;3.87;;;1.57;;
16270;SDS011;8243;49.048;8.396;2023-02-25T06:24:46;3.47;;;1.40;;
16270;SDS011;8243;49.048;8.396;2023-02-25T06:27:12;1.67;;;1.20;;
16270;SDS011;8243;49.048;8.396;2023-02-25T06:29:38;3.33;;;1.63;;
16270;SDS011;8243;49.048;8.396;2023-02-25T06:32:06;2.97;;;1.40;;
16270;SDS011;8243;49.048;8.396;2023-02-25T06:34:33;4.00;;;1.63;;
16270;SDS011;8243;49.048;8.396;2023-02-25T06:36:58;3.27;;;1.80;;
16270;SDS011;8243;49.048;8.396;2023-02-25T06:39:24;4.00;;;2.00;;
16270;SDS011;8243;49.048;8.396;2023-02-25T06:41:50;4.20;;;2.10;;
16270;SDS011;8243;49.048;8.396;2023-02-25T06:44:16;4.73;;;1.80;;
16270;SDS011;8243;49.048;8.396;2023-02-25T06:46:42;2.53;;;1.80;;
16270;SDS011;8243;49.048;8.396;2023-02-25T06:49:07;3.57;;;1.93;;
16270;SDS011;8243;49.048;8.396;2023-02-25T06:51:33;2.33;;;1.80;;
16270;SDS011;8243;49.048;8.396;2023-02-25T06:53:58;4.97;;;2.43;;
16270;SDS011;8243;49.048;8.396;2023-02-25T06:56:26;8.10;;;2.00;;
16270;SDS011;8243;49.048;8.396;2023-02-25T06:58:53;4.70;;;2.00;;
16270;SDS011;8243;49.048;8.396;2023-02-25T07:01:19;5.17;;;2.10;;
16270;SDS011;8243;49.048;8.396;2023-02-25T07:03:45;5.23;;;2.10;;
16270;SDS011;8243;49.048;8.396;2023-02-25T07:06:10;6.90;;;2.23;;
16270;SDS011;8243;49.048;8.396;2023-02-25T07:08:39;3.10;;;1.93;;
16270;SDS011;8243;49.048;8.396;2023-02-25T07:11:09;4.37;;;2.00;;
16270;SDS011;8243;49.048;8.396;2023-02-25T07:13:40;6.10;;;1.63;;
16270;SDS011;8243;49.048;8.396;2023-02-25T07:16:07;3.53;;;1.90;;
16270;SDS011;8243;49.048;8.396;2023-02-25T07:18:33;3.10;;;1.70;;
16270;SDS011;8243;49.048;8.396;2023-02-25T07:20:58;4.93;;;1.90;;
16270;SDS011;8243;49.048;8.396;2023-02-25T07:23:24;5.10;;;1.87;;
16270;SDS011;8243;49.048;8.396;2023-02-25T07:25:50;2.10;;;1.43;;
16270;SDS011;8243;49.048;8.396;2023-02-25T07:28:15;3.97;;;1.33;;
16270;SDS011;8243;49.048;8.396;2023-02-25T07:30:41;3.93;;;1.40;;
16270;SDS011;8243;49.048;8.396;2023-02-25T07:33:06;4.90;;;1.60;;
16270;SDS011;8243;49.048;8.396;2023-02-25T07:35:32;5.00;;;1.50;;
16270;SDS011;8243;49.048;8.396;2023-02-25T07:37:58;4.67;;;1.60;;
16270;SDS011;8243;49.048;8.396;2023-02-25T07:40:24;3.97;;;1.80;;
16270;SDS011;8243;49.048;8.396;2023-02-25T07:42:50;3.87;;;1.47;;
16270;SDS011;8243;49.048;8.396;2023-02-25T07:45:15;4.43;;;1.40;;
16270;SDS011;8243;49.048;8.396;2023-02-25T07:47:41;2.80;;;1.20;;
16270;SDS011;8243;49.048;8.396;2023-02-25T07:50:07;2.93;;;1.07;;
16270;SDS011;8243;49.048;8.396;2023-02-25T07:52:35;5.83;;;1.47;;
16270;SDS011;8243;49.048;8.396;2023-02-25T07:55:04;1.57;;;1.30;;
16270;SDS011;8243;49.048;8.396;2023-02-25T07:57:30;2.97;;;1.40;;
16270;SDS011;8243;49.048;8.396;2023-02-25T07:59:56;5.43;;;1.53;;
16270;SDS011;8243;49.048;8.396;2023-02-25T08:02:22;3.23;;;1.30;;
16270;SDS011;8243;49.048;8.396;2023-02-25T08:04:49;4.37;;;1.63;;
16270;SDS011;8243;49.048;8.396;2023-02-25T08:07:15;3.00;;;1.40;;
16270;SDS011;8243;49.048;8.396;2023-02-25T08:13:01;5.87;;;2.00;;
16270;SDS011;8243;49.048;8.396;2023-02-25T08:15:49;5.07;;;1.80;;
16270;SDS011;8243;49.048;8.396;2023-02-25T08:18:21;5.20;;;1.73;;
16270;SDS011;8243;49.048;8.396;2023-02-25T08:20:47;3.30;;;1.70;;
16270;SDS011;8243;49.048;8.396;2023-02-25T08:23:12;4.27;;;1.80;;
16270;SDS011;8243;49.048;8.396;2023-02-25T08:25:41;5.37;;;1.80;;
16270;SDS011;8243;49.048;8.396;2023-02-25T08:28:22;4.53;;;2.17;;
16270;SDS011;8243;49.048;8.396;2023-02-25T08:31:30;3.90;;;1.80;;
16270;SDS011;8243;49.048;8.396;2023-02-25T08:33:56;5.40;;;1.87;;
16270;SDS011;8243;49.048;8.396;2023-02-25T08:36:24;4.97;;;1.70;;
16270;SDS011;8243;49.048;8.396;2023-02-25T08:38:53;4.00;;;1.63;;
16270;SDS011;8243;49.048;8.396;2023-02-25T08:41:21;4.03;;;2.23;;
16270;SDS011;8243;49.048;8.396;2023-02-25T08:43:48;2.83;;;1.70;;
16270;SDS011;8243;49.048;8.396;2023-02-25T08:46:16;4.97;;;1.90;;
16270;SDS011;8243;49.048;8.396;2023-02-25T08:48:42;3.57;;;1.83;;
16270;SDS011;8243;49.048;8.396;2023-02-25T08:51:08;3.30;;;2.30;;
16270;SDS011;8243;49.048;8.396;2023-02-25T08:53:38;2.97;;;1.83;;
16270;SDS011;8243;49.048;8.396;2023-02-25T08:56:05;5.73;;;1.90;;
16270;SDS011;8243;49.048;8.396;2023-02-25T08:58:32;3.67;;;1.60;;
16270;SDS011;8243;49.048;8.396;2023-02-25T09:00:58;4.43;;;1.70;;
16270;SDS011;8243;49.048;8.396;2023-02-25T09:03:24;3.93;;;1.60;;
16270;SDS011;8243;49.048;8.396;2023-02-25T09:05:50;5.80;;;1.97;;
16270;SDS011;8243;49.048;8.396;2023-02-25T09:08:19;4.03;;;1.97;;
16270;SDS011;8243;49.048;8.396;2023-02-25T09:10:45;4.90;;;2.73;;
16270;SDS011;8243;49.048;8.396;2023-02-25T09:13:11;7.60;;;2.97;;
16270;SDS011;8243;49.048;8.396;2023-02-25T09:15:37;4.90;;;2.70;;
16270;SDS011;8243;49.048;8.396;2023-02-25T09:18:03;9.73;;;4.80;;
16270;SDS011;8243;49.048;8.396;2023-02-25T09:20:29;7.03;;;2.80;;
16270;SDS011;8243;49.048;8.396;2023-02-25T09:22:54;3.43;;;1.70;;
16270;SDS011;8243;49.048;8.396;2023-02-25T09:25:20;2.77;;;1.70;;
16270;SDS011;8243;49.048;8.396;2023-02-25T09:27:46;3.57;;;1.60;;
16270;SDS011;8243;49.048;8.396;2023-02-25T09:30:12;2.70;;;1.53;;
16270;SDS011;8243;49.048;8.396;2023-02-25T09:32:38;3.63;;;2.40;;
16270;SDS011;8243;49.048;8.396;2023-02-25T09:35:03;4.30;;;1.60;;
16270;SDS011;8243;49.048;8.396;2023-02-25T09:37:29;3.87;;;1.50;;
16270;SDS011;8243;49.048;8.396;2023-02-25T09:39:55;3.87;;;2.70;;
16270;SDS011;8243;49.048;8.396;2023-02-25T09:42:22;3.50;;;1.63;;
16270;SDS011;8243;49.048;8.396;2023-02-25T09:44:56;2.40;;;1.40;;
16270;SDS011;8243;49.048;8.396;2023-02-25T09:50:19;2.93;;;1.40;;
16270;SDS011;8243;49.048;8.396;2023-02-25T09:53:33;4.87;;;1.97;;
16270;SDS011;8243;49.048;8.396;2023-02-25T09:55:40;2.70;;;1.57;;
16270;SDS011;8243;49.048;8.396;2023-02-25T09:58:13;2.93;;;1.80;;
16270;SDS011;8243;49.048;8.396;2023-02-25T10:11:07;4.67;;;1.70;;
16270;SDS011;8243;49.048;8.396;2023-02-25T10:16:42;5.87;;;2.03;;
16270;SDS011;8243;49.048;8.396;2023-02-25T10:24:57;4.10;;;2.10;;
16270;SDS011;8243;49.048;8.396;2023-02-25T10:27:50;5.07;;;1.90;;
16270;SDS011;8243;49.048;8.396;2023-02-25T10:30:28;7.43;;;1.60;;
16270;SDS011;8243;49.048;8.396;2023-02-25T10:32:57;2.53;;;1.30;;
16270;SDS011;8243;49.048;8.396;2023-02-25T10:35:31;2.40;;;1.10;;
16270;SDS011;8243;49.048;8.396;2023-02-25T10:38:01;4.57;;;1.50;;
16270;SDS011;8243;49.048;8.396;2023-02-25T10:40:26;3.63;;;1.60;;
16270;SDS011;8243;49.048;8.396;2023-02-25T10:42:53;4.07;;;1.70;;
16270;SDS011;8243;49.048;8.396;2023-02-25T10:45:28;5.13;;;1.30;;
16270;SDS011;8243;49.048;8.396;2023-02-25T10:48:16;4.83;;;1.27;;
16270;SDS011;8243;49.048;8.396;2023-02-25T10:51:02;2.07;;;1.20;;
16270;SDS011;8243;49.048;8.396;2023-02-25T10:53:30;4.13;;;1.57;;
16270;SDS011;8243;49.048;8.396;2023-02-25T10:55:57;2.27;;;1.20;;
16270;SDS011;8243;49.048;8.396;2023-02-25T10:58:25;5.07;;;1.33;;
16270;SDS011;8243;49.048;8.396;2023-02-25T11:01:09;2.40;;;1.27;;
16270;SDS011;8243;49.048;8.396;2023-02-25T11:03:45;5.97;;;1.60;;
16270;SDS011;8243;49.048;8.396;2023-02-25T11:08:48;2.37;;;1.43;;
16270;SDS011;8243;49.048;8.396;2023-02-25T11:11:21;2.97;;;1.60;;
16270;SDS011;8243;49.048;8.396;2023-02-25T11:14:02;4.37;;;1.30;;
16270;SDS011;8243;49.048;8.396;2023-02-25T11:16:30;2.97;;;1.60;;
16270;SDS011;8243;49.048;8.396;2023-02-25T11:18:59;3.83;;;1.10;;
16270;SDS011;8243;49.048;8.396;2023-02-25T11:21:36;3.50;;;1.30;;
16270;SDS011;8243;49.048;8.396;2023-02-25T11:24:04;5.33;;;1.57;;
16270;SDS011;8243;49.048;8.396;2023-02-25T11:26:42;2.70;;;1.53;;
16270;SDS011;8243;49.048;8.396;2023-02-25T11:29:13;4.20;;;1.33;;
16270;SDS011;8243;49.048;8.396;2023-02-25T11:31:44;3.07;;;1.40;;
16270;SDS011;8243;49.048;8.396;2023-02-25T11:34:21;2.77;;;1.20;;
16270;SDS011;8243;49.048;8.396;2023-02-25T11:36:49;3.53;;;1.57;;
16270;SDS011;8243;49.048;8.396;2023-02-25T11:41:45;3.73;;;1.53;;
16270;SDS011;8243;49.048;8.396;2023-02-25T11:44:20;3.70;;;1.53;;
16270;SDS011;8243;49.048;8.396;2023-02-25T11:47:02;3.20;;;1.20;;
16270;SDS011;8243;49.048;8.396;2023-02-25T11:49:54;9.40;;;1.70;;
16270;SDS011;8243;49.048;8.396;2023-02-25T11:55:18;3.53;;;1.63;;
16270;SDS011;8243;49.048;8.396;2023-02-25T12:00:53;5.53;;;1.50;;
16270;SDS011;8243;49.048;8.396;2023-02-25T12:08:54;3.77;;;1.47;;
16270;SDS011;8243;49.048;8.396;2023-02-25T12:14:25;2.40;;;1.50;;
16270;SDS011;8243;49.048;8.396;2023-02-25T12:25:33;3.03;;;1.70;;
16270;SDS011;8243;49.048;8.396;2023-02-25T12:31:18;4.00;;;1.40;;
16270;SDS011;8243;49.048;8.396;2023-02-25T12:34:03;3.17;;;1.60;;
16270;SDS011;8243;49.048;8.396;2023-02-25T12:40:01;3.37;;;1.50;;
16270;SDS011;8243;49.048;8.396;2023-02-25T12:42:49;3.87;;;1.60;;
16270;SDS011;8243;49.048;8.396;2023-02-25T12:45:45;2.33;;;1.20;;
16270;SDS011;8243;49.048;8.396;2023-02-25T12:48:37;3.80;;;1.50;;
16270;SDS011;8243;49.048;8.396;2023-02-25T12:51:22;3.63;;;1.33;;
16270;SDS011;8243;49.048;8.396;2023-02-25T12:54:13;3.93;;;1.57;;
16270;SDS011;8243;49.048;8.396;2023-02-25T12:56:50;6.47;;;1.80;;
16270;SDS011;8243;49.048;8.396;2023-02-25T13:15:45;3.63;;;1.40;;
16270;SDS011;8243;49.048;8.396;2023-02-25T13:18:42;3.47;;;1.43;;
16270;SDS011;8243;49.048;8.396;2023-02-25T13:24:12;3.93;;;1.60;;
16270;SDS011;8243;49.048;8.396;2023-02-25T13:26:53;3.47;;;1.30;;
16270;SDS011;8243;49.048;8.396;2023-02-25T13:40:53;3.10;;;1.23;;
16270;SDS011;8243;49.048;8.396;2023-02-25T13:43:42;5.97;;;1.40;;
16270;SDS011;8243;49.048;8.396;2023-02-25T13:49:29;3.47;;;1.70;;
16270;SDS011;8243;49.048;8.396;2023-02-25T13:52:09;6.50;;;2.37;;
16270;SDS011;8243;49.048;8.396;2023-02-25T14:03:21;4.03;;;2.17;;
16270;SDS011;8243;49.048;8.396;2023-02-25T14:14:37;3.43;;;1.57;;
16270;SDS011;8243;49.048;8.396;2023-02-25T14:17:23;3.60;;;1.70;;
16270;SDS011;8243;49.048;8.396;2023-02-25T14:25:17;4.00;;;1.70;;
16270;SDS011;8243;49.048;8.396;2023-02-25T14:31:15;8.87;;;1.80;;
16270;SDS011;8243;49.048;8.396;2023-02-25T14:36:30;4.10;;;1.73;;
16270;SDS011;8243;49.048;8.396;2023-02-25T14:48:11;3.73;;;1.70;;
16270;SDS011;8243;49.048;8.396;2023-02-25T14:50:26;4.93;;;2.10;;
16270;SDS011;8243;49.048;8.396;2023-02-25T14:58:49;5.47;;;2.00;;
16270;SDS011;8243;49.048;8.396;2023-02-25T15:04:32;5.00;;;1.47;;
16270;SDS011;8243;49.048;8.396;2023-02-25T15:07:21;4.53;;;1.40;;
16270;SDS011;8243;49.048;8.396;2023-02-25T15:15:54;3.23;;;1.63;;
16270;SDS011;8243;49.048;8.396;2023-02-25T15:21:33;3.47;;;1.53;;
16270;SDS011;8243;49.048;8.396;2023-02-25T15:23:59;3.73;;;1.43;;
16270;SDS011;8243;49.048;8.396;2023-02-25T15:37:33;3.53;;;1.87;;
16270;SDS011;8243;49.048;8.396;2023-02-25T15:42:43;6.70;;;1.97;;
16270;SDS011;8243;49.048;8.396;2023-02-25T15:55:45;3.57;;;2.00;;
16270;SDS011;8243;49.048;8.396;2023-02-25T16:00:51;7.33;;;3.50;;
16270;SDS011;8243;49.048;8.396;2023-02-25T16:06:00;3.00;;;1.97;;
16270;SDS011;8243;49.048;8.396;2023-02-25T16:11:02;2.07;;;1.60;;
16270;SDS011;8243;49.048;8.396;2023-02-25T16:13:31;3.77;;;1.50;;
16270;SDS011;8243;49.048;8.396;2023-02-25T16:15:58;5.70;;;1.80;;
16270;SDS011;8243;49.048;8.396;2023-02-25T16:20:58;1.10;;;0.90;;
16270;SDS011;8243;49.048;8.396;2023-02-25T16:23:30;3.30;;;1.70;;
16270;SDS011;8243;49.048;8.396;2023-02-25T16:34:38;4.00;;;1.40;;
16270;SDS011;8243;49.048;8.396;2023-02-25T16:39:29;1.53;;;1.13;;
16270;SDS011;8243;49.048;8.396;2023-02-25T16:42:00;3.93;;;1.30;;
16270;SDS011;8243;49.048;8.396;2023-02-25T16:44:31;2.43;;;1.27;;
16270;SDS011;8243;49.048;8.396;2023-02-25T16:47:00;1.77;;;1.00;;
16270;SDS011;8243;49.048;8.396;2023-02-25T16:49:30;1.23;;;0.90;;
16270;SDS011;8243;49.048;8.396;2023-02-25T16:52:01;2.30;;;1.90;;
16270;SDS011;8243;49.048;8.396;2023-02-25T16:54:32;1.00;;;1.00;;
16270;SDS011;8243;49.048;8.396;2023-02-25T16:57:02;1.83;;;1.37;;
16270;SDS011;8243;49.048;8.396;2023-02-25T16:59:31;2.43;;;1.20;;
16270;SDS011;8243;49.048;8.396;2023-02-25T17:02:00;2.03;;;1.40;;
16270;SDS011;8243;49.048;8.396;2023-02-25T17:04:31;1.70;;;1.60;;
16270;SDS011;8243;49.048;8.396;2023-02-25T17:09:55;1.83;;;1.50;;
16270;SDS011;8243;49.048;8.396;2023-02-25T17:15:01;1.47;;;1.37;;
16270;SDS011;8243;49.048;8.396;2023-02-25T17:17:30;2.10;;;1.27;;
16270;SDS011;8243;49.048;8.396;2023-02-25T17:20:00;2.63;;;1.10;;
16270;SDS011;8243;49.048;8.396;2023-02-25T17:22:30;1.47;;;1.20;;
16270;SDS011;8243;49.048;8.396;2023-02-25T17:24:57;1.93;;;1.00;;
16270;SDS011;8243;49.048;8.396;2023-02-25T17:27:24;1.87;;;1.77;;
16270;SDS011;8243;49.048;8.396;2023-02-25T17:29:50;2.27;;;1.40;;
16270;SDS011;8243;49.048;8.396;2023-02-25T17:32:18;2.47;;;1.70;;
16270;SDS011;8243;49.048;8.396;2023-02-25T17:34:47;4.33;;;1.83;;
16270;SDS011;8243;49.048;8.396;2023-02-25T17:37:16;3.60;;;1.67;;
16270;SDS011;8243;49.048;8.396;2023-02-25T17:39:42;2.77;;;1.50;;
16270;SDS011;8243;49.048;8.396;2023-02-25T17:42:31;4.83;;;1.70;;
16270;SDS011;8243;49.048;8.396;2023-02-25T17:44:57;3.27;;;1.10;;
16270;SDS011;8243;49.048;8.396;2023-02-25T17:47:28;3.03;;;1.53;;
16270;SDS011;8243;49.048;8.396;2023-02-25T17:49:56;3.10;;;1.20;;
16270;SDS011;8243;49.048;8.396;2023-02-25T17:52:27;2.17;;;1.10;;
16270;SDS011;8243;49.048;8.396;2023-02-25T17:57:29;3.30;;;1.90;;
16270;SDS011;8243;49.048;8.396;2023-02-25T18:00:07;10.80;;;5.30;;
16270;SDS011;8243;49.048;8.396;2023-02-25T18:02:44;4.17;;;2.17;;
16270;SDS011;8243;49.048;8.396;2023-02-25T18:07:36;2.13;;;1.87;;
16270;SDS011;8243;49.048;8.396;2023-02-25T18:10:04;3.07;;;1.50;;
16270;SDS011;8243;49.048;8.396;2023-02-25T18:12:35;3.50;;;1.40;;
16270;SDS011;8243;49.048;8.396;2023-02-25T18:15:03;2.90;;;1.60;;
16270;SDS011;8243;49.048;8.396;2023-02-25T18:17:39;4.90;;;2.73;;
16270;SDS011;8243;49.048;8.396;2023-02-25T18:20:24;4.93;;;2.97;;
16270;SDS011;8243;49.048;8.396;2023-02-25T18:22:59;6.03;;;2.90;;
16270;SDS011;8243;49.048;8.396;2023-02-25T18:25:35;3.17;;;1.93;;
16270;SDS011;8243;49.048;8.396;2023-02-25T18:28:01;4.90;;;3.13;;
16270;SDS011;8243;49.048;8.396;2023-02-25T18:30:30;2.80;;;2.33;;
16270;SDS011;8243;49.048;8.396;2023-02-25T18:32:56;5.10;;;3.27;;
16270;SDS011;8243;49.048;8.396;2023-02-25T18:35:23;8.77;;;3.90;;
16270;SDS011;8243;49.048;8.396;2023-02-25T18:37:52;20.57;;;13.03;;
16270;SDS011;8243;49.048;8.396;2023-02-25T18:40:33;13.77;;;9.33;;
16270;SDS011;8243;49.048;8.396;2023-02-25T18:43:03;9.77;;;7.10;;
16270;SDS011;8243;49.048;8.396;2023-02-25T18:45:30;6.47;;;2.97;;
16270;SDS011;8243;49.048;8.396;2023-02-25T18:47:57;4.87;;;4.17;;
16270;SDS011;8243;49.048;8.396;2023-02-25T18:50:24;9.50;;;7.97;;
16270;SDS011;8243;49.048;8.396;2023-02-25T18:52:52;3.13;;;1.90;;
16270;SDS011;8243;49.048;8.396;2023-02-25T18:55:22;3.93;;;1.30;;
16270;SDS011;8243;49.048;8.396;2023-02-25T18:57:50;4.53;;;1.50;;
16270;SDS011;8243;49.048;8.396;2023-02-25T19:00:16;4.00;;;1.30;;
16270;SDS011;8243;49.048;8.396;2023-02-25T19:02:56;5.47;;;1.77;;